createdAt,value
2022-11-11T00:00:04.000Z,94.38
2022-11-11T00:02:50.997Z,94.37
2022-11-11T00:05:37.815Z,94.93
2022-11-11T00:08:25.884Z,94.55
2022-11-11T00:11:14.538Z,94.44
2022-11-11T00:14:01.242Z,94.55
2022-11-11T00:17:05.370Z,94.34
2022-11-11T00:20:09.406Z,94.37
2022-11-11T00:23:22.128Z,94.32
2022-11-11T00:26:38.040Z,94.46
2022-11-11T00:29:18.301Z,94.65
2022-11-11T00:32:23.029Z,94.44
2022-11-11T00:35:27.864Z,94.38
2022-11-11T00:38:36.490Z,94.38
2022-11-11T00:41:25.674Z,94.16
2022-11-11T00:44:12.779Z,94.28
2022-11-11T00:47:17.136Z,94.16
2022-11-11T00:50:21.935Z,94.10
2022-11-11T00:53:12.226Z,94.32
2022-11-11T00:55:59.394Z,94.39
2022-11-11T00:58:47.643Z,94.39
2022-11-11T01:01:35.270Z,94.33
2022-11-11T01:04:21.727Z,94.46
2022-11-11T01:07:08.364Z,94.58
2022-11-11T01:09:55.053Z,94.47
2022-11-11T01:12:41.642Z,94.69
2022-11-11T01:15:29.728Z,94.68
2022-11-11T01:18:20.344Z,94.90
2022-11-11T01:21:09.531Z,94.79
2022-11-11T01:23:56.178Z,94.73
2022-11-11T01:26:43.222Z,94.82
2022-11-11T01:29:30.206Z,94.76
2022-11-11T01:32:18.103Z,94.90
2022-11-11T01:35:05.164Z,94.86
2022-11-11T01:37:51.615Z,94.84
2022-11-11T01:40:43.247Z,94.83
2022-11-11T01:43:30.330Z,94.75
2022-11-11T01:46:25.106Z,94.74
2022-11-11T01:49:24.336Z,94.61
2022-11-11T01:52:15.823Z,94.77
2022-11-11T01:55:07.808Z,94.90
2022-11-11T01:57:59.039Z,94.77
2022-11-11T02:00:45.813Z,95.09
2022-11-11T02:03:36.978Z,94.91
2022-11-11T02:06:25.107Z,94.97
2022-11-11T02:09:12.041Z,94.87
2022-11-11T02:12:18.738Z,94.79
2022-11-11T02:15:07.072Z,94.88
2022-11-11T02:17:53.882Z,94.71
2022-11-11T02:20:44.191Z,94.75
2022-11-11T02:23:35.201Z,94.57
2022-11-11T02:26:24.086Z,94.47
2022-11-11T02:29:14.895Z,94.76
2022-11-11T02:32:01.688Z,94.71
2022-11-11T02:34:48.638Z,94.58
2022-11-11T02:37:35.348Z,94.79
2022-11-11T02:40:26.193Z,94.87
2022-11-11T02:43:14.435Z,94.65
2022-11-11T02:46:02.318Z,94.68
2022-11-11T02:48:49.193Z,94.67
2022-11-11T02:51:36.002Z,94.80
2022-11-11T02:54:22.571Z,94.67
2022-11-11T02:57:09.413Z,94.86
2022-11-11T02:59:59.735Z,94.78
2022-11-11T03:02:46.741Z,94.68
2022-11-11T03:05:33.433Z,94.90
2022-11-11T03:08:20.391Z,94.70
2022-11-11T03:11:07.183Z,94.61
2022-11-11T03:13:54.757Z,94.55
2022-11-11T03:17:00.482Z,94.50
2022-11-11T03:19:47.283Z,94.64
2022-11-11T03:25:40.648Z,94.76
2022-11-11T03:28:27.424Z,94.72
2022-11-11T03:31:14.024Z,94.76
2022-11-11T03:34:18.372Z,94.91
2022-11-11T03:37:24.069Z,94.76
2022-11-11T03:40:12.015Z,94.64
2022-11-11T03:43:04.213Z,94.54
2022-11-11T03:45:52.054Z,95.20
2022-11-11T03:48:38.796Z,94.99
2022-11-11T03:51:26.787Z,94.73
2022-11-11T03:54:13.546Z,94.93
2022-11-11T03:57:14.262Z,94.70
2022-11-11T04:00:00.711Z,94.87
2022-11-11T04:03:05.051Z,94.88
2022-11-11T04:06:09.554Z,94.75
2022-11-11T04:09:14.681Z,94.76
2022-11-11T04:12:01.349Z,94.72
2022-11-11T04:15:05.394Z,94.71
2022-11-11T04:17:52.045Z,94.94
2022-11-11T04:20:55.898Z,94.78
2022-11-11T04:23:42.470Z,94.72
2022-11-11T04:26:29.505Z,94.74
2022-11-11T04:29:31.414Z,94.63
2022-11-11T04:32:39.299Z,94.48
2022-11-11T04:35:26.843Z,94.54
2022-11-11T04:38:41.813Z,94.55
2022-11-11T04:41:40.787Z,94.57
2022-11-11T04:44:54.103Z,94.65
2022-11-11T04:47:53.243Z,94.68
2022-11-11T04:50:42.337Z,94.56
2022-11-11T04:53:30.528Z,94.49
2022-11-11T04:56:35.036Z,94.71
2022-11-11T04:59:21.601Z,94.58
2022-11-11T05:02:27.127Z,94.39
2022-11-11T05:05:14.017Z,94.53
2022-11-11T05:08:18.410Z,94.47
2022-11-11T05:11:05.313Z,94.67
2022-11-11T05:14:09.587Z,94.53
2022-11-11T05:17:15.476Z,94.53
2022-11-11T05:20:20.963Z,94.43
2022-11-11T05:23:07.588Z,94.61
2022-11-11T05:25:53.072Z,94.54
2022-11-11T05:28:39.510Z,94.60
2022-11-11T05:31:26.007Z,94.51
2022-11-11T05:34:12.748Z,94.63
2022-11-11T05:37:00.638Z,94.25
2022-11-11T05:39:47.592Z,93.92
2022-11-11T05:42:34.279Z,93.60
2022-11-11T05:45:20.904Z,93.43
2022-11-11T05:48:07.604Z,93.86
2022-11-11T05:50:54.231Z,93.89
2022-11-11T05:53:42.534Z,93.89
2022-11-11T05:56:28.975Z,94.38
2022-11-11T05:59:15.738Z,94.06
2022-11-11T06:02:02.750Z,93.99
2022-11-11T06:04:49.721Z,94.27
2022-11-11T06:07:39.499Z,94.25
2022-11-11T06:10:33.751Z,94.16
2022-11-11T06:13:20.222Z,94.27
2022-11-11T06:16:07.937Z,94.52
2022-11-11T06:18:54.696Z,94.48
2022-11-11T06:22:01.193Z,94.43
2022-11-11T06:25:08.327Z,94.44
2022-11-11T06:27:56.539Z,94.51
2022-11-11T06:30:50.124Z,94.61
2022-11-11T06:33:38.820Z,94.51
2022-11-11T06:36:25.674Z,94.54
2022-11-11T06:39:12.299Z,94.46
2022-11-11T06:41:59.544Z,94.35
2022-11-11T06:44:47.889Z,94.14
2022-11-11T06:47:34.444Z,94.04
2022-11-11T06:50:21.732Z,93.95
2022-11-11T06:53:09.227Z,93.65
2022-11-11T06:55:56.182Z,93.63
2022-11-11T06:58:43.000Z,93.97
2022-11-11T07:01:31.507Z,93.60
2022-11-11T07:04:18.433Z,93.64
2022-11-11T07:07:05.210Z,94.04
2022-11-11T07:09:52.081Z,94.15
2022-11-11T07:12:41.948Z,94.10
2022-11-11T07:15:28.617Z,94.12
2022-11-11T07:18:16.589Z,93.86
2022-11-11T07:21:03.081Z,93.65
2022-11-11T07:23:49.593Z,93.38
2022-11-11T07:26:36.413Z,93.24
2022-11-11T07:29:23.252Z,92.96
2022-11-11T07:32:10.087Z,92.45
2022-11-11T07:34:58.199Z,92.27
2022-11-11T07:37:45.376Z,91.98
2022-11-11T07:40:31.920Z,91.26
2022-11-11T07:43:20.089Z,91.29
2022-11-11T07:46:06.957Z,91.27
2022-11-11T07:48:54.006Z,91.11
2022-11-11T07:51:41.868Z,90.44
2022-11-11T07:54:29.345Z,90.51
2022-11-11T07:57:15.652Z,90.74
2022-11-11T08:00:02.468Z,90.47
2022-11-11T08:02:49.193Z,90.31
2022-11-11T08:05:35.860Z,90.08
2022-11-11T08:08:26.986Z,89.95
2022-11-11T08:11:14.131Z,89.52
2022-11-11T08:13:59.783Z,89.35
2022-11-11T08:16:46.373Z,89.07
2022-11-11T08:19:33.310Z,89.39
2022-11-11T08:22:19.964Z,89.42
2022-11-11T08:25:10.767Z,89.75
2022-11-11T08:28:01.129Z,89.53
2022-11-11T08:30:49.081Z,89.54
2022-11-11T08:33:37.335Z,89.49
2022-11-11T08:36:25.461Z,89.28
2022-11-11T08:39:12.960Z,89.77
2022-11-11T08:42:00.906Z,89.31
2022-11-11T08:44:47.995Z,88.97
2022-11-11T08:47:36.234Z,88.81
2022-11-11T08:50:22.961Z,88.83
2022-11-11T08:53:10.417Z,88.96
2022-11-11T08:55:56.921Z,85.45
2022-11-11T08:58:45.822Z,86.18
2022-11-11T09:01:32.222Z,86.41
2022-11-11T09:07:26.107Z,88.79
2022-11-11T09:10:15.783Z,88.11
2022-11-11T09:13:03.234Z,88.43
2022-11-11T09:15:53.909Z,89.04
2022-11-11T09:18:41.273Z,89.01
2022-11-11T09:21:27.726Z,87.76
2022-11-11T09:24:14.430Z,88.72
2022-11-11T09:27:01.007Z,88.35
2022-11-11T09:29:49.566Z,86.52
2022-11-11T09:32:37.691Z,87.08
2022-11-11T09:35:25.561Z,86.02
2022-11-11T09:38:12.287Z,86.46
2022-11-11T09:41:13.837Z,84.71
2022-11-11T09:44:02.113Z,82.91
2022-11-11T09:46:59.055Z,83.53
2022-11-11T09:49:59.455Z,81.63
2022-11-11T09:52:51.039Z,81.63
2022-11-11T09:55:41.737Z,80.96
2022-11-11T09:58:33.584Z,79.65
2022-11-11T10:01:24.410Z,79.95
2022-11-11T10:04:29.528Z,78.63
2022-11-11T10:07:35.275Z,77.78
2022-11-11T10:10:28.397Z,77.54
2022-11-11T10:13:17.373Z,77.82
2022-11-11T10:16:11.903Z,77.64
2022-11-11T10:19:13.594Z,77.32
2022-11-11T10:22:18.380Z,77.45
2022-11-11T10:25:22.162Z,75.65
2022-11-11T10:28:16.406Z,74.63
2022-11-11T10:31:05.725Z,75.82
2022-11-11T10:33:57.918Z,74.05
2022-11-11T10:36:47.406Z,74.05
2022-11-11T10:39:47.781Z,75.66
2022-11-11T10:42:38.293Z,75.14
2022-11-11T10:45:32.781Z,72.66
2022-11-11T10:48:25.778Z,71.57
2022-11-11T10:51:13.619Z,71.84
2022-11-11T10:54:06.985Z,70.56
2022-11-11T10:57:01.804Z,71.21
2022-11-11T10:59:55.224Z,70.63
2022-11-11T11:02:46.790Z,71.35
2022-11-11T11:05:38.500Z,72.76
2022-11-11T11:08:30.399Z,71.37
2022-11-11T11:11:22.650Z,70.29
2022-11-11T11:14:14.207Z,68.91
2022-11-11T11:17:10.679Z,68.81
2022-11-11T11:20:11.134Z,69.25
2022-11-11T11:23:01.713Z,67.84
2022-11-11T11:25:54.808Z,68.91
2022-11-11T11:28:56.229Z,67.30
2022-11-11T11:31:43.045Z,67.33
2022-11-11T11:34:46.363Z,66.61
2022-11-11T11:37:32.956Z,65.14
2022-11-11T11:40:19.789Z,66.88
2022-11-11T11:43:25.806Z,67.90
2022-11-11T11:46:25.562Z,62.40
2022-11-11T11:49:25.557Z,64.59
2022-11-11T11:52:22.352Z,67.12
2022-11-11T11:55:16.804Z,65.85
2022-11-11T11:58:29.258Z,65.60
2022-11-11T12:01:23.255Z,61.69
2022-11-11T12:04:54.703Z,62.11
2022-11-11T12:08:04.219Z,58.75
2022-11-11T12:10:57.397Z,58.45
2022-11-11T12:13:59.493Z,63.35
2022-11-11T12:16:54.355Z,63.70
2022-11-11T12:19:52.743Z,58.45
2022-11-11T12:22:58.529Z,56.56
2022-11-11T12:25:53.593Z,52.94
2022-11-11T12:28:56.835Z,53.05
2022-11-11T12:32:04.008Z,55.76
2022-11-11T12:35:16.779Z,55.61
2022-11-11T12:38:20.079Z,52.36
2022-11-11T12:41:18.032Z,48.19
2022-11-11T12:44:08.092Z,49.34
2022-11-11T12:47:18.083Z,44.98
2022-11-11T12:50:18.249Z,52.96
2022-11-11T12:53:19.655Z,52.88
2022-11-11T12:56:15.332Z,56.08
2022-11-11T12:59:10.476Z,57.03
2022-11-11T13:02:03.575Z,54.77
2022-11-11T13:05:02.493Z,52.74
2022-11-11T13:08:09.914Z,47.70
2022-11-11T13:11:04.759Z,46.67
2022-11-11T13:14:05.108Z,45.14
2022-11-11T13:16:53.091Z,49.06
2022-11-11T13:19:45.974Z,49.22
2022-11-11T13:22:33.779Z,47.64
2022-11-11T13:25:23.915Z,52.39
2022-11-11T13:28:19.523Z,53.00
2022-11-11T13:31:23.682Z,52.28
2022-11-11T13:34:13.272Z,60.16
2022-11-11T13:37:00.158Z,61.68
2022-11-11T13:39:54.421Z,64.86
2022-11-11T13:42:51.318Z,64.28
2022-11-11T13:45:42.551Z,65.15
2022-11-11T13:48:31.925Z,66.39
2022-11-11T13:51:26.080Z,70.24
2022-11-11T13:54:25.759Z,70.09
2022-11-11T13:57:21.341Z,69.32
2022-11-11T14:00:25.589Z,69.83
2022-11-11T14:03:35.474Z,70.25
2022-11-11T14:06:55.313Z,69.32
2022-11-11T14:10:08.778Z,71.10
2022-11-11T14:12:56.628Z,71.90
2022-11-11T14:15:45.605Z,70.31
2022-11-11T14:18:39.758Z,70.73
2022-11-11T14:21:50.537Z,70.71
2022-11-11T14:24:40.396Z,72.03
2022-11-11T14:27:30.442Z,71.85
2022-11-11T14:30:39.605Z,71.60
2022-11-11T14:33:45.018Z,71.69
2022-11-11T14:36:40.331Z,73.04
2022-11-11T14:39:37.155Z,74.91
2022-11-11T14:42:48.960Z,75.30
2022-11-11T14:46:03.247Z,76.08
2022-11-11T14:49:02.724Z,76.31
2022-11-11T14:51:51.972Z,76.12
2022-11-11T14:55:00.639Z,78.00
2022-11-11T14:57:49.885Z,78.25
2022-11-11T15:00:47.250Z,79.69
2022-11-11T15:03:39.361Z,80.70
2022-11-11T15:06:33.651Z,81.56
2022-11-11T15:09:42.166Z,82.18
2022-11-11T15:12:44.579Z,82.64
2022-11-11T15:15:40.838Z,81.75
2022-11-11T15:18:48.584Z,81.58
2022-11-11T15:21:38.335Z,81.70
2022-11-11T15:24:35.540Z,82.38
2022-11-11T15:27:34.764Z,82.36
2022-11-11T15:30:25.662Z,82.32
2022-11-11T15:33:19.692Z,82.89
2022-11-11T15:36:15.620Z,83.44
2022-11-11T15:39:09.151Z,83.65
2022-11-11T15:41:55.749Z,83.98
2022-11-11T15:44:42.809Z,84.57
2022-11-11T15:47:34.390Z,85.13
2022-11-11T15:50:31.915Z,86.25
2022-11-11T15:53:24.910Z,86.58
2022-11-11T15:56:13.168Z,86.74
2022-11-11T15:59:17.534Z,87.49
2022-11-11T16:02:09.191Z,89.53
2022-11-11T16:04:58.680Z,89.80
2022-11-11T16:07:46.268Z,90.54
2022-11-11T16:10:35.881Z,90.68
2022-11-11T16:13:29.444Z,90.81
2022-11-11T16:16:21.069Z,90.61
2022-11-11T16:19:17.240Z,91.13
2022-11-11T16:22:08.050Z,91.06
2022-11-11T16:24:56.694Z,91.09
2022-11-11T16:27:43.083Z,91.90
2022-11-11T16:30:34.452Z,91.85
2022-11-11T16:33:33.451Z,91.90
2022-11-11T16:36:20.089Z,92.15
2022-11-11T16:39:16.774Z,92.68
2022-11-11T16:42:05.394Z,92.29
2022-11-11T16:44:57.133Z,92.36
2022-11-11T16:47:48.299Z,92.48
2022-11-11T16:50:35.254Z,92.91
2022-11-11T16:53:30.342Z,93.00
2022-11-11T16:56:22.344Z,93.38
2022-11-11T16:59:12.627Z,93.23
2022-11-11T17:01:59.400Z,93.47
2022-11-11T17:04:52.852Z,93.27
2022-11-11T17:07:41.809Z,93.62
2022-11-11T17:10:29.708Z,93.51
2022-11-11T17:13:16.097Z,93.49
2022-11-11T17:16:04.950Z,93.59
2022-11-11T17:18:51.674Z,93.70
2022-11-11T17:21:39.536Z,93.86
2022-11-11T17:24:25.799Z,93.98
2022-11-11T17:27:12.359Z,94.00
2022-11-11T17:29:59.384Z,94.09
2022-11-11T17:32:48.717Z,94.16
2022-11-11T17:35:35.094Z,94.23
2022-11-11T17:38:22.802Z,94.28
2022-11-11T17:41:09.674Z,94.12
2022-11-11T17:43:56.629Z,94.51
2022-11-11T17:46:43.502Z,94.16
2022-11-11T17:49:55.273Z,94.10
2022-11-11T17:52:40.445Z,94.10
2022-11-11T17:55:28.117Z,94.17
2022-11-11T17:58:14.466Z,94.27
2022-11-11T18:01:06.598Z,94.40
2022-11-11T18:03:56.717Z,94.50
2022-11-11T18:06:43.282Z,94.36
2022-11-11T18:09:29.879Z,94.12
2022-11-11T18:12:17.965Z,94.28
2022-11-11T18:15:05.614Z,94.02
2022-11-11T18:17:51.939Z,94.05
2022-11-11T18:20:38.903Z,94.21
2022-11-11T18:23:25.896Z,94.00
2022-11-11T18:26:12.766Z,94.02
2022-11-11T18:29:00.805Z,93.59
2022-11-11T18:31:49.805Z,92.84
2022-11-11T18:34:40.266Z,92.67
2022-11-11T18:37:26.924Z,92.42
2022-11-11T18:40:14.542Z,92.21
2022-11-11T18:43:01.266Z,92.50
2022-11-11T18:45:50.909Z,92.83
2022-11-11T18:48:38.503Z,92.87
2022-11-11T18:51:25.119Z,92.88
2022-11-11T18:54:11.759Z,93.42
2022-11-11T18:56:58.723Z,93.80
2022-11-11T18:59:46.079Z,93.57
2022-11-11T19:02:33.913Z,93.75
2022-11-11T19:05:20.395Z,93.77
2022-11-11T19:08:07.042Z,94.01
2022-11-11T19:10:53.597Z,94.26
2022-11-11T19:13:40.517Z,94.40
2022-11-11T19:16:27.299Z,94.68
2022-11-11T19:19:16.334Z,95.00
2022-11-11T19:22:03.191Z,94.97
2022-11-11T19:24:49.710Z,95.26
2022-11-11T19:27:36.280Z,95.03
2022-11-11T19:30:23.285Z,95.06
2022-11-11T19:33:10.144Z,95.19
2022-11-11T19:35:59.302Z,95.27
2022-11-11T19:38:47.667Z,95.04
2022-11-11T19:41:36.640Z,94.99
2022-11-11T19:44:23.690Z,95.27
2022-11-11T19:47:10.409Z,95.46
2022-11-11T19:49:57.285Z,95.23
2022-11-11T19:52:45.380Z,95.50
2022-11-11T19:55:32.136Z,95.39
2022-11-11T19:58:18.595Z,95.51
2022-11-11T20:01:09.526Z,95.33
2022-11-11T20:03:57.219Z,95.51
2022-11-11T20:06:43.991Z,95.80
2022-11-11T20:09:36.246Z,95.69
2022-11-11T20:12:22.943Z,95.74
2022-11-11T20:15:10.488Z,95.65
2022-11-11T20:17:56.884Z,95.79
2022-11-11T20:20:43.594Z,95.74
2022-11-11T20:23:30.839Z,95.77
2022-11-11T20:26:19.629Z,95.52
2022-11-11T20:29:06.336Z,95.41
2022-11-11T20:31:52.966Z,95.46
2022-11-11T20:34:39.562Z,95.24
2022-11-11T20:37:27.038Z,95.08
2022-11-11T20:40:13.606Z,95.18
2022-11-11T20:43:02.075Z,95.26
2022-11-11T20:45:48.675Z,95.28
2022-11-11T20:48:35.466Z,95.43
2022-11-11T20:51:23.768Z,95.42
2022-11-11T20:54:10.542Z,95.40
2022-11-11T20:56:56.916Z,95.50
2022-11-11T20:59:44.929Z,95.49
2022-11-11T21:02:32.527Z,95.57
2022-11-11T21:05:19.989Z,95.67
2022-11-11T21:08:06.408Z,95.50
2022-11-11T21:10:56.359Z,95.66
2022-11-11T21:13:45.659Z,95.58
2022-11-11T21:16:33.764Z,95.59
2022-11-11T21:19:20.358Z,95.80
2022-11-11T21:22:10.116Z,95.54
2022-11-11T21:24:56.995Z,95.74
2022-11-11T21:27:43.438Z,95.68
2022-11-11T21:30:29.849Z,95.46
2022-11-11T21:33:17.567Z,95.82
2022-11-11T21:36:07.123Z,95.77
2022-11-11T21:38:54.112Z,95.66
2022-11-11T21:41:41.795Z,95.84
2022-11-11T21:44:28.235Z,96.07
2022-11-11T21:47:17.358Z,96.01
2022-11-11T21:50:05.999Z,95.94
2022-11-11T21:52:52.439Z,95.88
2022-11-11T21:55:38.854Z,96.12
2022-11-11T21:58:25.349Z,96.10
2022-11-11T22:01:14.582Z,95.91
2022-11-11T22:04:03.171Z,95.98
2022-11-11T22:06:51.788Z,95.58
2022-11-11T22:09:38.564Z,95.30
2022-11-11T22:12:25.163Z,94.81
2022-11-11T22:15:12.692Z,94.32
2022-11-11T22:17:59.916Z,93.68
2022-11-11T22:20:46.606Z,92.98
2022-11-11T22:23:34.979Z,94.01
2022-11-11T22:26:51.127Z,94.34
2022-11-11T22:29:38.084Z,93.94
2022-11-11T22:32:25.454Z,94.56
2022-11-11T22:35:11.892Z,94.33
2022-11-11T22:37:58.938Z,94.84
2022-11-11T22:40:45.388Z,95.25
2022-11-11T22:43:58.480Z,95.33
2022-11-11T22:46:44.336Z,95.66
2022-11-11T22:49:31.234Z,95.63
2022-11-11T22:52:18.059Z,95.73
2022-11-11T22:55:04.968Z,95.99
2022-11-11T22:57:51.754Z,95.98
2022-11-11T23:00:40.826Z,96.01
2022-11-11T23:03:27.748Z,96.12
2022-11-11T23:06:17.093Z,96.14
2022-11-11T23:09:18.577Z,96.04
2022-11-11T23:12:05.783Z,96.09
2022-11-11T23:14:52.344Z,96.57
2022-11-11T23:17:40.590Z,96.19
2022-11-11T23:20:27.258Z,96.13
2022-11-11T23:23:13.482Z,96.02
2022-11-11T23:26:03.166Z,95.74
2022-11-11T23:28:50.120Z,95.50
2022-11-11T23:31:36.870Z,95.17
2022-11-11T23:34:24.955Z,94.81
2022-11-11T23:37:11.898Z,94.92
2022-11-11T23:39:58.822Z,94.77
2022-11-11T23:42:45.436Z,94.01
2022-11-11T23:45:32.847Z,93.77
2022-11-11T23:48:19.949Z,94.15
2022-11-11T23:51:08.057Z,94.70
2022-11-11T23:53:54.954Z,95.11
2022-11-11T23:56:41.803Z,95.65
2022-11-11T23:59:28.752Z,95.44
